Oceana Nas /Apollo Soucek Field/ Station
KNTU : now visible

Airfield :











YOU CAN JOIN US ON...

 
LOGIN :

Register | Disclaimer

   EN    FR    IT 

 









Legend :    VFR   Marginal VFR   IFR   Intensive IFR   Very Intensive IFR
Visi :
Ceiling :
>= 8 km
>= 3000ft
5 to 8 km
1000 to 3000 ft
1500m to 5 km
500 to 1000 ft
800 to 1500m
200 to 500 ft
< 800m
< 200 ft
Symbols :   Thunderstorms  Fog  Heavy snow  Heavy precipitations  Wind > 20 kt






- Airport Elevation : 23 ft


KNTU - Oceana Nas /Apollo Soucek Field/ Station

CURRENT METAR :
  • 161019Z 24004KT 8SM BKN021 BKN043 07/04 A2959 RMK AO2 VIS 2 RWY 5R T00670044

EXPIRED METARs :
  • 160956Z 22004KT 9SM FEW012 SCT095 06/04 A2959 RMK AO2 VIS 1 RWY 5R SLP023 T00610039
  • 160856Z 22004KT 10SM FEW095 SCT160 08/05 A2959 RMK AO2 VIS 1 1/4 RWY 5R RAE10 SLP024 P0000 60013 T00780050 56016
  • 160756Z 00000KT 10SM -RA OVC070 09/06 A2960 RMK AO2 SLP026 P0003 T00890056

TAF TAF KNTU
Valid from the 16 at 07:00 until the 17 at 07:00 UTC


1607/1707 33005KT 9999 VCSH SCT010 BKN020 OVC035 640409 641306 520008 580809 581709 QNH2959INS
TEMPO 1607/1613 6000 SHRA SCT005 BKN010 OVC020
BECMG 1613/1615 24010KT 9999 VCSH FEW010 SCT020 BKN030 600000 520009 QNH2955INS
TEMPO 1617/1622 24010G15KT 8000 -SHRA FEW020 SCT030 BKN040
BECMG 1700/1702 25013KT 9999 NSW FEW020 SCT030 500000 QNH2962INS T05/1612Z T13/1618Z FN00199
KZDC FIR / North America



MET'MAP, your aeronautical weather chart ! - Copyright ORBIFLY December 2007 - Disclaimer

ORBIFLY MET'MAP TEAM :

Programming & Development : Alexandra Zaïnal
Concept & original design : Baudouin d'Aumeries
Assistance for programming : Marc-Olivier Méhu
Technical & hardware support : Manuel Goepfert

Contact : metmap@orbifly.com




SOURCES & CREDITS :

   NOAA       Earth
Advisory